createdAt,value
2023-05-03T00:00:55.595Z,46.26
2023-05-03T00:03:25.883Z,46.25
2023-05-03T00:05:52.691Z,46.23
2023-05-03T00:08:19.495Z,46.29
2023-05-03T00:10:46.243Z,46.30
2023-05-03T00:13:13.591Z,46.23
2023-05-03T00:15:40.569Z,46.18
2023-05-03T00:18:07.504Z,46.23
2023-05-03T00:20:34.470Z,46.07
2023-05-03T00:23:02.395Z,46.12
2023-05-03T00:25:29.673Z,45.99
2023-05-03T00:27:57.706Z,46.00
2023-05-03T00:30:25.475Z,45.96
2023-05-03T00:32:52.384Z,45.97
2023-05-03T00:35:19.404Z,46.02
2023-05-03T00:37:46.313Z,46.06
2023-05-03T00:40:15.456Z,46.07
2023-05-03T00:42:42.331Z,46.17
2023-05-03T00:45:09.509Z,46.27
2023-05-03T00:47:36.934Z,46.26
2023-05-03T00:50:05.023Z,46.44
2023-05-03T00:52:32.139Z,46.44
2023-05-03T00:54:58.984Z,46.59
2023-05-03T00:57:25.781Z,46.57
2023-05-03T00:59:53.032Z,46.67
2023-05-03T01:02:19.911Z,46.75
2023-05-03T01:04:47.186Z,46.89
2023-05-03T01:07:32.849Z,47.19
2023-05-03T01:10:39.075Z,47.19
2023-05-03T01:13:30.546Z,47.38
2023-05-03T01:16:10.273Z,47.40
2023-05-03T01:18:42.380Z,47.54
2023-05-03T01:21:09.741Z,47.62
2023-05-03T01:23:40.743Z,47.75
2023-05-03T01:26:21.645Z,47.64
2023-05-03T01:28:48.603Z,47.79
2023-05-03T01:31:29.031Z,47.87
2023-05-03T01:34:10.908Z,47.96
2023-05-03T01:36:37.789Z,48.13
2023-05-03T01:39:07.922Z,48.18
2023-05-03T01:41:36.323Z,48.24
2023-05-03T01:44:03.612Z,48.29
2023-05-03T01:46:30.453Z,48.36
2023-05-03T01:48:57.235Z,48.37
2023-05-03T01:51:24.166Z,48.41
2023-05-03T01:53:50.940Z,48.62
2023-05-03T01:56:17.693Z,48.55
2023-05-03T01:58:44.573Z,48.65
2023-05-03T02:01:11.431Z,48.65
2023-05-03T02:03:38.327Z,48.77
2023-05-03T02:06:05.339Z,48.78
2023-05-03T02:08:32.263Z,48.95
2023-05-03T02:10:59.613Z,49.13
2023-05-03T02:13:26.433Z,49.14
2023-05-03T02:15:53.326Z,49.28
2023-05-03T02:18:20.481Z,49.36
2023-05-03T02:20:47.437Z,49.58
2023-05-03T02:23:14.314Z,49.75
2023-05-03T02:25:41.385Z,49.78
2023-05-03T02:28:09.347Z,49.82
2023-05-03T02:30:36.341Z,49.95
2023-05-03T02:33:03.233Z,50.18
2023-05-03T02:35:31.182Z,50.28
2023-05-03T02:37:58.090Z,50.29
2023-05-03T02:40:25.557Z,50.73
2023-05-03T02:42:53.461Z,50.78
2023-05-03T02:45:23.080Z,51.11
2023-05-03T02:47:49.892Z,51.08
2023-05-03T02:50:16.915Z,51.17
2023-05-03T02:52:43.794Z,51.31
2023-05-03T02:55:10.646Z,51.40
2023-05-03T02:57:37.796Z,51.65
2023-05-03T03:00:06.175Z,51.79
2023-05-03T03:02:33.374Z,51.71
2023-05-03T03:05:00.420Z,51.96
2023-05-03T03:07:28.613Z,52.03
2023-05-03T03:09:55.968Z,51.91
2023-05-03T03:12:22.832Z,52.11
2023-05-03T03:14:50.038Z,52.23
2023-05-03T03:17:16.920Z,52.26
2023-05-03T03:19:43.970Z,52.57
2023-05-03T03:22:11.043Z,52.74
2023-05-03T03:24:38.655Z,52.90
2023-05-03T03:27:05.610Z,52.95
2023-05-03T03:29:33.050Z,52.80
2023-05-03T03:32:00.548Z,53.16
2023-05-03T03:34:27.449Z,53.27
2023-05-03T03:36:54.426Z,53.29
2023-05-03T03:39:21.362Z,53.31
2023-05-03T03:41:48.565Z,53.32
2023-05-03T03:44:15.428Z,53.48
2023-05-03T03:46:42.699Z,53.50
2023-05-03T03:49:09.830Z,53.55
2023-05-03T03:51:36.970Z,53.43
2023-05-03T03:54:03.967Z,53.45
2023-05-03T03:56:32.273Z,53.47
2023-05-03T03:59:00.058Z,53.30
2023-05-03T04:01:26.929Z,53.41
2023-05-03T04:03:54.081Z,53.37
2023-05-03T04:06:21.083Z,53.38
2023-05-03T04:08:49.366Z,53.12
2023-05-03T04:11:16.812Z,53.02
2023-05-03T04:13:48.492Z,52.71
2023-05-03T04:16:15.962Z,52.81
2023-05-03T04:18:43.885Z,52.60
2023-05-03T04:21:10.818Z,52.23
2023-05-03T04:23:38.665Z,52.08
2023-05-03T04:26:06.571Z,51.89
2023-05-03T04:28:35.466Z,51.29
2023-05-03T04:31:02.463Z,51.10
2023-05-03T04:33:31.393Z,50.79
2023-05-03T04:36:02.358Z,50.51
2023-05-03T04:38:29.529Z,50.39
2023-05-03T04:40:58.442Z,50.20
2023-05-03T04:43:25.532Z,50.05
2023-05-03T04:45:53.663Z,49.90
2023-05-03T04:48:22.781Z,49.52
2023-05-03T04:50:49.729Z,49.05
2023-05-03T04:53:18.158Z,48.91
2023-05-03T04:55:48.569Z,48.76
2023-05-03T04:58:15.643Z,48.70
2023-05-03T05:00:43.079Z,48.73
2023-05-03T05:03:15.078Z,48.87
2023-05-03T05:05:42.016Z,48.80
2023-05-03T05:08:09.433Z,49.03
2023-05-03T05:10:43.139Z,49.00
2023-05-03T05:13:11.844Z,49.04
2023-05-03T05:15:38.880Z,48.94
2023-05-03T05:18:05.877Z,48.89
2023-05-03T05:20:32.813Z,48.72
2023-05-03T05:22:59.671Z,48.48
2023-05-03T05:25:27.403Z,48.38
2023-05-03T05:27:54.563Z,48.59
2023-05-03T05:30:23.577Z,48.50
2023-05-03T05:32:51.025Z,48.10
2023-05-03T05:35:19.382Z,47.70
2023-05-03T05:37:46.970Z,47.31
2023-05-03T05:40:15.329Z,47.25
2023-05-03T05:42:48.795Z,46.93
2023-05-03T05:45:15.817Z,46.70
2023-05-03T05:47:42.771Z,46.26
2023-05-03T05:50:17.424Z,46.18
2023-05-03T05:52:51.428Z,45.34
2023-05-03T05:55:18.860Z,45.47
2023-05-03T05:57:46.294Z,45.49
2023-05-03T06:00:15.959Z,45.20
2023-05-03T06:02:44.671Z,45.60
2023-05-03T06:05:16.198Z,45.55
2023-05-03T06:09:17.264Z,45.01
2023-05-03T06:11:52.144Z,44.77
2023-05-03T06:14:20.023Z,44.84
2023-05-03T06:16:47.416Z,44.56
2023-05-03T06:19:14.152Z,43.88
2023-05-03T06:21:40.786Z,43.42
2023-05-03T06:24:07.636Z,43.71
2023-05-03T06:26:35.338Z,43.82
2023-05-03T06:29:02.797Z,43.36
2023-05-03T06:31:30.452Z,43.24
2023-05-03T06:33:57.933Z,42.54
2023-05-03T06:36:25.192Z,42.58
2023-05-03T06:38:53.016Z,42.29
2023-05-03T06:41:19.640Z,41.62
2023-05-03T06:43:46.889Z,40.97
2023-05-03T06:46:13.563Z,40.84
2023-05-03T06:48:40.378Z,40.20
2023-05-03T06:51:07.051Z,40.28
2023-05-03T06:53:33.748Z,40.25
2023-05-03T06:56:03.137Z,39.88
2023-05-03T06:58:30.315Z,40.10
2023-05-03T07:00:57.577Z,39.73
2023-05-03T07:03:25.864Z,39.24
2023-05-03T07:05:52.830Z,38.46
2023-05-03T07:08:19.720Z,37.42
2023-05-03T07:10:46.864Z,36.27
2023-05-03T07:13:15.811Z,35.07
2023-05-03T07:15:43.577Z,34.98
2023-05-03T07:18:10.450Z,34.62
2023-05-03T07:20:37.774Z,34.70
2023-05-03T07:23:05.958Z,34.69
2023-05-03T07:25:34.204Z,35.17
2023-05-03T07:28:01.320Z,35.59
2023-05-03T07:30:29.179Z,35.19
2023-05-03T07:32:56.392Z,34.66
2023-05-03T07:35:23.302Z,34.44
2023-05-03T07:37:49.966Z,34.56
2023-05-03T07:40:17.416Z,35.01
2023-05-03T07:42:44.320Z,35.48
2023-05-03T07:45:11.165Z,36.42
2023-05-03T07:47:39.589Z,36.93
2023-05-03T07:50:06.757Z,37.01
2023-05-03T07:52:36.887Z,37.04
2023-05-03T07:55:03.898Z,36.92
2023-05-03T07:57:31.158Z,37.07
2023-05-03T07:59:57.840Z,37.27
2023-05-03T08:02:24.665Z,37.36
2023-05-03T08:04:51.545Z,37.31
2023-05-03T08:07:18.485Z,37.22
2023-05-03T08:09:47.084Z,37.30
2023-05-03T08:12:13.747Z,37.35
2023-05-03T08:14:40.730Z,37.47
2023-05-03T08:17:07.356Z,37.54
2023-05-03T08:19:34.105Z,37.66
2023-05-03T08:22:00.687Z,37.73
2023-05-03T08:24:27.325Z,37.85
2023-05-03T08:26:54.756Z,37.71
2023-05-03T08:29:21.261Z,37.93
2023-05-03T08:31:47.890Z,37.96
2023-05-03T08:34:15.134Z,37.78
2023-05-03T08:36:41.756Z,37.67
2023-05-03T08:39:09.754Z,37.73
2023-05-03T08:41:36.600Z,37.91
2023-05-03T08:44:04.878Z,37.98
2023-05-03T08:46:36.541Z,38.00
2023-05-03T08:49:03.357Z,37.80
2023-05-03T08:51:31.141Z,37.65
2023-05-03T08:53:58.574Z,37.61
2023-05-03T08:56:29.723Z,37.49
2023-05-03T08:59:01.125Z,37.52
2023-05-03T09:01:28.580Z,37.49
2023-05-03T09:03:55.508Z,37.16
2023-05-03T09:06:25.403Z,36.93
2023-05-03T09:08:53.654Z,36.34
2023-05-03T09:11:21.108Z,36.31
2023-05-03T09:13:52.708Z,36.31
2023-05-03T09:16:24.004Z,36.29
2023-05-03T09:19:00.896Z,36.08
2023-05-03T09:21:28.295Z,35.55
2023-05-03T09:23:55.075Z,34.96
2023-05-03T09:26:37.251Z,34.85
2023-05-03T09:29:04.795Z,34.53
2023-05-03T09:31:32.738Z,34.08
2023-05-03T09:33:59.579Z,33.78
2023-05-03T09:36:29.046Z,33.34
2023-05-03T09:38:55.811Z,33.19
2023-05-03T09:41:29.190Z,33.44
2023-05-03T09:43:58.142Z,33.47
2023-05-03T09:46:25.092Z,33.09
2023-05-03T09:48:54.796Z,32.97
2023-05-03T09:51:21.685Z,32.83
2023-05-03T09:53:48.470Z,32.45
2023-05-03T09:56:16.583Z,31.98
2023-05-03T09:58:43.171Z,31.36
2023-05-03T10:01:10.152Z,30.95
2023-05-03T10:03:41.645Z,30.98
2023-05-03T10:06:24.962Z,30.97
2023-05-03T10:09:29.226Z,30.70
2023-05-03T10:11:58.712Z,30.55
2023-05-03T10:14:25.916Z,30.85
2023-05-03T10:17:07.734Z,30.85
2023-05-03T10:19:56.240Z,30.51
2023-05-03T10:22:23.303Z,30.80
2023-05-03T10:24:59.514Z,30.94
2023-05-03T10:27:43.478Z,30.93
2023-05-03T10:30:25.563Z,30.96
2023-05-03T10:32:52.252Z,31.12
2023-05-03T10:35:18.938Z,30.55
2023-05-03T10:37:48.054Z,30.59
2023-05-03T10:40:16.099Z,30.37
2023-05-03T10:42:50.234Z,30.41
2023-05-03T10:45:27.872Z,30.53
2023-05-03T10:48:12.699Z,30.50
2023-05-03T10:50:39.505Z,30.58
2023-05-03T10:53:06.176Z,30.72
2023-05-03T10:55:33.939Z,30.80
2023-05-03T10:58:00.876Z,30.39
2023-05-03T11:00:33.764Z,30.11
2023-05-03T11:03:18.991Z,30.08
2023-05-03T11:05:47.215Z,30.10
2023-05-03T11:08:17.821Z,29.92
2023-05-03T11:10:50.520Z,30.19
2023-05-03T11:13:17.940Z,30.15
2023-05-03T11:15:45.842Z,29.63
2023-05-03T11:18:14.857Z,29.60
2023-05-03T11:20:41.381Z,29.34
2023-05-03T11:23:08.294Z,29.32
2023-05-03T11:25:36.224Z,28.98
2023-05-03T11:28:03.755Z,28.75
2023-05-03T11:30:32.810Z,28.67
2023-05-03T11:32:59.589Z,28.52
2023-05-03T11:35:28.259Z,28.79
2023-05-03T11:37:54.983Z,29.01
2023-05-03T11:40:21.658Z,29.03
2023-05-03T11:42:51.625Z,29.03
2023-05-03T11:45:22.796Z,29.50
2023-05-03T11:47:50.517Z,30.16
2023-05-03T11:50:17.942Z,30.29
2023-05-03T11:52:45.073Z,29.55
2023-05-03T11:55:11.757Z,29.37
2023-05-03T11:57:38.568Z,28.93
2023-05-03T12:00:16.423Z,28.66
2023-05-03T12:02:44.637Z,28.52
2023-05-03T12:05:12.596Z,28.41
2023-05-03T12:07:40.781Z,28.46
2023-05-03T12:10:20.246Z,28.53
2023-05-03T12:13:00.233Z,28.19
2023-05-03T12:15:30.077Z,28.17
2023-05-03T12:18:00.170Z,28.15
2023-05-03T12:23:04.038Z,28.39
2023-05-03T12:25:33.882Z,28.72
2023-05-03T12:28:18.456Z,28.97
2023-05-03T12:30:46.791Z,29.22
2023-05-03T12:33:15.806Z,29.42
2023-05-03T12:35:46.756Z,30.08
2023-05-03T12:38:16.468Z,30.08
2023-05-03T12:40:44.588Z,29.82
2023-05-03T12:43:11.363Z,29.46
2023-05-03T12:45:40.529Z,29.59
2023-05-03T12:48:08.395Z,30.03
2023-05-03T12:50:38.737Z,30.20
2023-05-03T12:53:09.557Z,30.54
2023-05-03T12:55:42.887Z,31.21
2023-05-03T13:00:48.229Z,32.48
2023-05-03T13:03:32.743Z,32.86
2023-05-03T13:06:11.823Z,33.00
2023-05-03T13:08:48.874Z,33.50
2023-05-03T13:11:18.904Z,33.43
2023-05-03T13:13:45.861Z,33.74
2023-05-03T13:16:13.318Z,33.94
2023-05-03T13:18:42.184Z,33.85
2023-05-03T13:21:09.490Z,34.10
2023-05-03T13:23:36.006Z,34.30
2023-05-03T13:26:05.422Z,34.63
2023-05-03T13:28:32.301Z,34.84
2023-05-03T13:30:58.958Z,34.99
2023-05-03T13:33:26.713Z,35.17
2023-05-03T13:35:54.348Z,35.33
2023-05-03T13:38:20.926Z,35.00
2023-05-03T13:40:47.509Z,35.00
2023-05-03T13:43:14.566Z,34.97
2023-05-03T13:45:43.470Z,35.10
2023-05-03T13:48:18.775Z,34.92
2023-05-03T13:50:46.065Z,35.08
2023-05-03T13:53:13.074Z,35.51
2023-05-03T13:55:39.745Z,35.86
2023-05-03T13:58:06.391Z,36.11
2023-05-03T14:00:33.561Z,36.01
2023-05-03T14:03:00.836Z,36.08
2023-05-03T14:05:28.516Z,36.12
2023-05-03T14:07:56.876Z,36.03
2023-05-03T14:10:24.131Z,36.10
2023-05-03T14:12:52.696Z,36.40
2023-05-03T14:15:20.984Z,36.51
2023-05-03T14:17:47.727Z,36.56
2023-05-03T14:20:16.891Z,36.68
2023-05-03T14:22:44.114Z,36.81
2023-05-03T14:25:12.043Z,36.80
2023-05-03T14:27:38.919Z,36.93
2023-05-03T14:30:06.811Z,36.98
2023-05-03T14:32:34.247Z,36.98
2023-05-03T14:35:01.453Z,37.22
2023-05-03T14:37:28.481Z,37.25
2023-05-03T14:39:55.320Z,37.16
2023-05-03T14:42:22.060Z,36.99
2023-05-03T14:44:49.131Z,37.21
2023-05-03T14:47:15.913Z,37.32
2023-05-03T14:49:42.607Z,37.39
2023-05-03T14:52:09.182Z,37.76
2023-05-03T14:54:36.408Z,37.89
2023-05-03T14:57:03.966Z,37.93
2023-05-03T14:59:33.408Z,38.25
2023-05-03T15:02:00.363Z,38.24
2023-05-03T15:04:27.271Z,38.38
2023-05-03T15:06:54.670Z,38.34
2023-05-03T15:09:21.584Z,38.49
2023-05-03T15:11:50.530Z,38.57
2023-05-03T15:14:19.748Z,38.66
2023-05-03T15:16:47.288Z,38.74
2023-05-03T15:19:17.834Z,38.69
2023-05-03T15:21:49.383Z,38.85
2023-05-03T15:24:16.454Z,39.05
2023-05-03T15:26:43.593Z,38.97
2023-05-03T15:29:10.336Z,39.01
2023-05-03T15:31:37.985Z,39.28
2023-05-03T15:34:05.995Z,39.36
2023-05-03T15:36:32.967Z,39.50
2023-05-03T15:38:59.801Z,39.61
2023-05-03T15:41:26.786Z,39.62
2023-05-03T15:43:54.854Z,39.65
2023-05-03T15:46:21.518Z,40.07
2023-05-03T15:48:48.179Z,39.95
2023-05-03T15:51:14.830Z,39.94
2023-05-03T15:53:41.512Z,40.06
2023-05-03T15:56:08.581Z,40.35
2023-05-03T15:58:36.392Z,40.08
2023-05-03T16:01:03.449Z,40.05
2023-05-03T16:03:31.091Z,40.02
2023-05-03T16:05:58.207Z,40.33
2023-05-03T16:08:25.596Z,40.56
2023-05-03T16:10:54.105Z,41.01
2023-05-03T16:13:21.396Z,41.37
2023-05-03T16:15:51.571Z,41.65
2023-05-03T16:18:19.977Z,41.61
2023-05-03T16:20:47.313Z,41.62
2023-05-03T16:23:14.030Z,41.58
2023-05-03T16:25:40.649Z,41.57
2023-05-03T16:28:07.722Z,41.62
2023-05-03T16:30:35.035Z,41.52
2023-05-03T16:33:02.537Z,41.63
2023-05-03T16:35:29.171Z,41.68
2023-05-03T16:37:56.033Z,42.39
2023-05-03T16:40:22.625Z,42.45
2023-05-03T16:42:50.188Z,42.83
2023-05-03T16:45:18.859Z,42.97
2023-05-03T16:47:46.003Z,43.08
2023-05-03T16:50:12.594Z,43.17
2023-05-03T16:52:40.641Z,43.20
2023-05-03T16:55:08.698Z,43.29
2023-05-03T16:57:36.500Z,43.33
2023-05-03T17:00:10.488Z,43.49
2023-05-03T17:02:39.207Z,43.45
2023-05-03T17:05:07.585Z,43.62
2023-05-03T17:07:35.049Z,43.64
2023-05-03T17:10:02.855Z,43.74
2023-05-03T17:12:30.511Z,43.96
2023-05-03T17:14:57.298Z,44.47
2023-05-03T17:17:23.888Z,44.90
2023-05-03T17:19:50.574Z,45.22
2023-05-03T17:22:17.300Z,45.41
2023-05-03T17:24:43.974Z,45.72
2023-05-03T17:27:10.543Z,45.85
2023-05-03T17:29:37.803Z,46.27
2023-05-03T17:32:04.600Z,46.53
2023-05-03T17:34:31.339Z,46.46
2023-05-03T17:36:58.430Z,46.26
2023-05-03T17:39:27.780Z,46.70
2023-05-03T17:41:54.464Z,47.29
2023-05-03T17:44:22.314Z,47.93
2023-05-03T17:46:50.097Z,48.64
2023-05-03T17:49:16.746Z,49.43
2023-05-03T17:51:43.933Z,50.56
2023-05-03T17:54:13.021Z,51.42
2023-05-03T17:56:39.762Z,52.19
2023-05-03T17:59:08.105Z,53.02
2023-05-03T18:01:34.927Z,53.63
2023-05-03T18:04:01.839Z,54.23
2023-05-03T18:06:28.932Z,54.67
2023-05-03T18:08:55.734Z,55.49
2023-05-03T18:11:22.485Z,55.95
2023-05-03T18:13:49.534Z,56.45
2023-05-03T18:16:16.368Z,57.24
2023-05-03T18:18:42.970Z,57.73
2023-05-03T18:21:11.170Z,58.13
2023-05-03T18:26:28.369Z,59.08
2023-05-03T18:28:57.299Z,59.47
2023-05-03T18:31:28.297Z,59.75
2023-05-03T18:34:01.089Z,59.87
2023-05-03T18:36:31.877Z,59.95
2023-05-03T18:38:58.726Z,60.35
2023-05-03T18:41:25.580Z,60.48
2023-05-03T18:43:52.323Z,60.98
2023-05-03T18:46:19.645Z,61.04
2023-05-03T18:48:47.952Z,61.26
2023-05-03T18:51:15.089Z,61.62
2023-05-03T18:53:41.845Z,61.94
2023-05-03T18:56:08.614Z,62.84
2023-05-03T18:58:35.356Z,62.99
2023-05-03T19:01:02.260Z,63.52
2023-05-03T19:03:29.612Z,63.91
2023-05-03T19:06:08.623Z,63.76
2023-05-03T19:08:35.822Z,64.09
2023-05-03T19:11:09.723Z,64.35
2023-05-03T19:13:36.616Z,64.29
2023-05-03T19:16:03.827Z,64.68
2023-05-03T19:18:31.744Z,64.72
2023-05-03T19:20:58.846Z,65.00
2023-05-03T19:23:25.774Z,64.99
2023-05-03T19:25:52.785Z,65.07
2023-05-03T19:28:19.577Z,65.06
2023-05-03T19:30:51.399Z,65.11
2023-05-03T19:33:21.733Z,64.86
2023-05-03T19:35:48.649Z,64.92
2023-05-03T19:38:15.598Z,64.80
2023-05-03T19:40:42.483Z,64.64
2023-05-03T19:43:09.395Z,64.64
2023-05-03T19:45:42.009Z,64.79
2023-05-03T19:48:10.613Z,64.56
2023-05-03T19:50:37.550Z,64.26
2023-05-03T19:53:04.389Z,64.17
2023-05-03T19:55:31.432Z,64.11
2023-05-03T19:57:58.432Z,63.67
2023-05-03T20:00:27.106Z,63.48
2023-05-03T20:02:54.998Z,63.51
2023-05-03T20:05:22.136Z,63.43
2023-05-03T20:07:49.222Z,63.53
2023-05-03T20:10:16.423Z,63.61
2023-05-03T20:12:44.915Z,63.69
2023-05-03T20:15:11.781Z,63.81
2023-05-03T20:17:38.791Z,64.00
2023-05-03T20:20:07.057Z,64.25
2023-05-03T20:22:34.067Z,64.44
2023-05-03T20:25:01.078Z,64.54
2023-05-03T20:27:30.410Z,64.77
2023-05-03T20:29:57.875Z,65.11
2023-05-03T20:32:24.952Z,64.97
2023-05-03T20:34:52.207Z,65.18
2023-05-03T20:37:19.652Z,65.16
2023-05-03T20:39:46.621Z,65.38
2023-05-03T20:42:13.944Z,65.52
2023-05-03T20:44:41.201Z,65.61
2023-05-03T20:47:08.106Z,65.63
2023-05-03T20:49:34.993Z,65.99
2023-05-03T20:52:01.892Z,66.05
2023-05-03T20:54:28.878Z,66.10
2023-05-03T20:56:56.025Z,66.32
2023-05-03T20:59:22.829Z,66.39
2023-05-03T21:01:49.701Z,66.54
2023-05-03T21:04:16.576Z,66.37
2023-05-03T21:06:45.184Z,66.42
2023-05-03T21:09:12.447Z,66.39
2023-05-03T21:11:39.383Z,66.31
2023-05-03T21:14:06.682Z,66.35
2023-05-03T21:16:33.611Z,66.27
2023-05-03T21:19:01.449Z,66.14
2023-05-03T21:21:28.549Z,66.24
2023-05-03T21:23:55.404Z,66.32
2023-05-03T21:26:22.470Z,66.25
2023-05-03T21:28:49.465Z,66.27
2023-05-03T21:31:16.437Z,66.41
2023-05-03T21:33:44.470Z,66.64
2023-05-03T21:36:12.636Z,66.82
2023-05-03T21:38:39.937Z,66.94
2023-05-03T21:41:07.373Z,67.15
2023-05-03T21:43:35.451Z,67.34
2023-05-03T21:46:04.085Z,67.36
2023-05-03T21:48:31.786Z,67.43
2023-05-03T21:50:58.692Z,67.42
2023-05-03T21:53:25.668Z,67.49
2023-05-03T21:55:52.620Z,67.50
2023-05-03T21:58:19.507Z,67.53
2023-05-03T22:00:46.428Z,67.60
2023-05-03T22:03:15.077Z,67.70
2023-05-03T22:05:44.993Z,67.83
2023-05-03T22:08:17.166Z,67.90
2023-05-03T22:10:45.698Z,68.12
2023-05-03T22:13:13.303Z,68.32
2023-05-03T22:15:40.406Z,68.63
2023-05-03T22:18:07.542Z,68.61
2023-05-03T22:20:34.711Z,68.68
2023-05-03T22:23:02.737Z,68.85
2023-05-03T22:25:32.071Z,69.02
2023-05-03T22:28:00.906Z,69.03
2023-05-03T22:30:28.847Z,69.08
2023-05-03T22:32:55.697Z,69.32
2023-05-03T22:35:22.484Z,69.37
2023-05-03T22:37:49.507Z,69.50
2023-05-03T22:40:16.393Z,69.61
2023-05-03T22:42:43.230Z,69.74
2023-05-03T22:45:10.522Z,69.80
2023-05-03T22:47:37.819Z,69.63
2023-05-03T22:50:05.882Z,69.69
2023-05-03T22:52:33.086Z,69.79
2023-05-03T22:55:01.670Z,69.91
2023-05-03T22:57:28.549Z,70.07
2023-05-03T22:59:56.918Z,70.20
2023-05-03T23:02:24.228Z,70.45
2023-05-03T23:04:51.098Z,70.49
2023-05-03T23:07:18.241Z,70.75
2023-05-03T23:09:48.708Z,70.76
2023-05-03T23:12:15.546Z,70.76
2023-05-03T23:14:45.840Z,70.95
2023-05-03T23:17:13.135Z,71.03
2023-05-03T23:19:39.972Z,71.09
2023-05-03T23:22:07.702Z,71.15
2023-05-03T23:24:35.108Z,71.30
2023-05-03T23:27:02.024Z,71.43
2023-05-03T23:29:29.408Z,71.34
2023-05-03T23:31:56.960Z,71.25
2023-05-03T23:34:25.237Z,71.20
2023-05-03T23:36:52.193Z,71.24
2023-05-03T23:39:19.136Z,71.23
2023-05-03T23:41:46.017Z,71.07
2023-05-03T23:44:13.094Z,71.10
2023-05-03T23:46:41.450Z,71.17
2023-05-03T23:49:09.636Z,71.31
2023-05-03T23:51:37.722Z,71.47
2023-05-03T23:54:04.841Z,71.38
2023-05-03T23:56:33.165Z,71.40
2023-05-03T23:59:01.966Z,71.48
